Time;durP1;ratioP1;P1;durP2;ratioP2;P2;SDS_P1;SDS_P2;PMS_P1;PMS_P2;Temp;Humidity;BMP_temperature;BMP_pressure;BME280_temperature;BME280_humidity;BME280_pressure;Samples;Min_cycle;Max_cycle;Signal;HPM_P1;HPM_P2
2021/05/06 00:34:11;;;;;;;2.13;0.70;;;;;;;;;;4983751;28;20135;-70
2021/05/06 00:36:37;;;;;;;1.63;0.70;;;;;;;;;;4980825;28;20518;-71
2021/05/06 00:39:09;;;;;;;2.38;0.60;;;;;;;;;;4979306;28;20522;-70
2021/05/06 00:41:52;;;;;;;2.38;0.60;;;;;;;;;;4983495;28;20144;-71
2021/05/06 01:05:59;;;;;;;1.55;0.40;;;;;;;;;;4984636;28;20046;-71
2021/05/06 01:08:33;;;;;;;1.52;0.50;;;;;;;;;;4982353;28;20058;-71
2021/05/06 01:11:10;;;;;;;0.98;0.40;;;;;;;;;;4989093;28;20108;-70
2021/05/06 01:13:38;;;;;;;0.75;0.30;;;;;;;;;;4980835;28;20062;-71
2021/05/06 01:16:05;;;;;;;1.85;0.77;;;;;;;;;;4988048;28;20066;-71
2021/05/06 01:18:31;;;;;;;1.30;0.55;;;;;;;;;;4986044;28;20116;-70
2021/05/06 01:21:00;;;;;;;0.73;0.50;;;;;;;;;;4987527;28;20070;-70
2021/05/06 01:23:28;;;;;;;2.38;0.60;;;;;;;;;;4986226;28;20160;-71
2021/05/06 01:26:05;;;;;;;1.63;0.57;;;;;;;;;;4985908;28;20039;-71
2021/05/06 01:28:35;;;;;;;1.55;0.70;;;;;;;;;;4996596;28;20192;-70
2021/05/06 01:36:02;;;;;;;1.08;0.47;;;;;;;;;;4987443;28;20516;-70
2021/05/06 01:41:36;;;;;;;1.48;0.40;;;;;;;;;;4983832;28;20528;-71
2021/05/06 01:44:03;;;;;;;0.95;0.45;;;;;;;;;;4981855;28;20051;-71
2021/05/06 01:57:38;;;;;;;0.73;0.40;;;;;;;;;;4985966;28;20124;-70
2021/05/06 02:00:09;;;;;;;2.25;0.57;;;;;;;;;;4987263;28;20513;-71
2021/05/06 02:02:35;;;;;;;1.17;0.50;;;;;;;;;;4985865;28;20070;-70
2021/05/06 02:05:02;;;;;;;0.70;0.40;;;;;;;;;;4987692;28;20058;-71
2021/05/06 02:07:29;;;;;;;1.55;0.45;;;;;;;;;;4985552;28;20463;-71
2021/05/06 02:09:55;;;;;;;2.00;0.65;;;;;;;;;;4981384;28;20043;-71
2021/05/06 02:12:22;;;;;;;1.98;0.50;;;;;;;;;;4985985;28;20100;-73
2021/05/06 02:14:56;;;;;;;1.55;0.50;;;;;;;;;;4986873;28;20399;-71
2021/05/06 02:17:22;;;;;;;1.65;0.50;;;;;;;;;;4985579;28;20583;-71
2021/05/06 02:19:49;;;;;;;1.40;0.40;;;;;;;;;;4986791;28;20085;-70
2021/05/06 02:22:17;;;;;;;1.80;0.50;;;;;;;;;;4986598;28;20070;-70
2021/05/06 02:24:44;;;;;;;1.55;0.68;;;;;;;;;;4983155;28;20104;-70
2021/05/06 02:27:11;;;;;;;1.17;0.50;;;;;;;;;;4985943;28;20105;-70
2021/05/06 02:29:37;;;;;;;1.55;0.50;;;;;;;;;;4965358;28;20061;-71
2021/05/06 02:32:04;;;;;;;2.28;0.50;;;;;;;;;;4985973;28;20066;-70
2021/05/06 02:34:31;;;;;;;0.82;0.40;;;;;;;;;;4985164;28;20065;-71
2021/05/06 02:36:57;;;;;;;0.82;0.43;;;;;;;;;;4985269;28;20132;-71
2021/05/06 02:39:23;;;;;;;2.08;0.40;;;;;;;;;;4983949;28;20070;-72
2021/05/06 02:41:50;;;;;;;0.63;0.47;;;;;;;;;;4984003;28;20181;-72
2021/05/06 02:44:16;;;;;;;1.73;0.50;;;;;;;;;;4982087;28;20053;-73
2021/05/06 02:46:43;;;;;;;0.95;0.32;;;;;;;;;;4984862;28;20132;-72
2021/05/06 02:49:09;;;;;;;2.65;0.50;;;;;;;;;;4985310;28;20058;-70
2021/05/06 02:51:41;;;;;;;1.38;0.60;;;;;;;;;;4984414;28;20154;-71
2021/05/06 02:54:07;;;;;;;0.90;0.40;;;;;;;;;;4985273;28;20212;-69
2021/05/06 02:56:43;;;;;;;0.63;0.30;;;;;;;;;;4982065;28;20094;-71
2021/05/06 03:04:25;;;;;;;0.88;0.40;;;;;;;;;;4984839;28;20042;-71
2021/05/06 03:06:59;;;;;;;1.60;0.50;;;;;;;;;;4982843;28;20042;-71
2021/05/06 03:14:54;;;;;;;1.00;0.30;;;;;;;;;;4985328;28;20116;-70
2021/05/06 03:21:01;;;;;;;1.52;0.40;;;;;;;;;;4984928;28;20105;-70
2021/05/06 03:22:59;;;;;;;0.85;0.40;;;;;;;;;;4983194;28;20204;-70
2021/05/06 03:25:28;;;;;;;1.80;0.50;;;;;;;;;;4984069;28;20042;-71
2021/05/06 03:27:59;;;;;;;1.58;0.40;;;;;;;;;;4985517;28;20054;-71
2021/05/06 04:15:03;;;;;;;1.67;0.32;;;;;;;;;;4950840;28;20124;-70
2021/05/06 04:17:06;;;;;;;1.08;0.50;;;;;;;;;;4970152;28;20379;-72
2021/05/06 04:27:38;;;;;;;1.88;0.60;;;;;;;;;;4981537;28;20508;-73
2021/05/06 04:30:19;;;;;;;1.50;0.50;;;;;;;;;;4996555;28;20038;-72
2021/05/06 04:35:45;;;;;;;1.23;0.52;;;;;;;;;;4981672;28;20124;-72
2021/05/06 04:38:13;;;;;;;2.22;0.60;;;;;;;;;;4983496;28;20038;-71
2021/05/06 04:41:15;;;;;;;1.50;0.45;;;;;;;;;;4983482;28;20054;-72
2021/05/06 05:04:40;;;;;;;1.63;0.50;;;;;;;;;;4981586;28;20911;-72
2021/05/06 05:07:12;;;;;;;1.05;0.30;;;;;;;;;;4983274;28;20073;-72
2021/05/06 05:20:16;;;;;;;1.02;0.30;;;;;;;;;;4984313;28;20089;-72
2021/05/06 05:27:57;;;;;;;1.20;0.50;;;;;;;;;;4983281;28;20054;-72
2021/05/06 05:30:26;;;;;;;0.82;0.40;;;;;;;;;;4982388;28;20066;-72
2021/05/06 05:32:52;;;;;;;0.45;0.30;;;;;;;;;;4983325;28;20070;-72
2021/05/06 05:56:01;;;;;;;0.47;0.30;;;;;;;;;;4981496;28;20477;-71
2021/05/06 05:58:28;;;;;;;0.50;0.20;;;;;;;;;;4984257;28;20066;-70
2021/05/06 06:00:54;;;;;;;1.55;0.40;;;;;;;;;;4983667;28;20512;-69
2021/05/06 06:03:21;;;;;;;0.70;0.35;;;;;;;;;;4987034;28;20058;-71
2021/05/06 06:05:48;;;;;;;0.82;0.35;;;;;;;;;;4985978;28;20038;-71
2021/05/06 06:08:19;;;;;;;2.97;0.40;;;;;;;;;;4985841;28;20450;-70
2021/05/06 06:10:45;;;;;;;1.23;0.30;;;;;;;;;;4985782;28;21808;-70
2021/05/06 06:13:12;;;;;;;0.63;0.38;;;;;;;;;;4985757;28;20069;-70
2021/05/06 06:18:19;;;;;;;0.52;0.40;;;;;;;;;;4995074;28;20065;-72
2021/05/06 06:20:50;;;;;;;1.50;0.52;;;;;;;;;;4984898;28;20066;-72
2021/05/06 06:23:16;;;;;;;1.00;0.43;;;;;;;;;;4985124;28;20066;-72
2021/05/06 06:25:43;;;;;;;1.05;0.38;;;;;;;;;;4984212;28;20339;-72
2021/05/06 06:28:12;;;;;;;0.55;0.30;;;;;;;;;;4986185;28;20525;-71
2021/05/06 06:30:40;;;;;;;0.45;0.25;;;;;;;;;;4983596;28;20066;-70
2021/05/06 06:33:06;;;;;;;2.72;0.30;;;;;;;;;;4978742;28;20124;-72
2021/05/06 06:35:33;;;;;;;2.05;0.35;;;;;;;;;;4985486;28;20054;-71
2021/05/06 06:37:59;;;;;;;1.50;0.30;;;;;;;;;;4985950;28;20650;-72
2021/05/06 06:40:25;;;;;;;2.90;0.30;;;;;;;;;;4984717;28;20565;-72
2021/05/06 06:42:52;;;;;;;0.98;0.40;;;;;;;;;;4986460;28;20071;-72
2021/05/06 06:45:20;;;;;;;0.82;0.30;;;;;;;;;;4993351;28;20740;-72
2021/05/06 06:47:54;;;;;;;1.67;0.40;;;;;;;;;;4984715;28;20066;-72
2021/05/06 06:50:20;;;;;;;0.25;0.15;;;;;;;;;;4985496;28;20058;-69
2021/05/06 06:52:47;;;;;;;1.58;0.32;;;;;;;;;;4987017;28;20054;-72
2021/05/06 06:55:14;;;;;;;1.48;0.40;;;;;;;;;;4984601;28;20117;-72
2021/05/06 06:57:40;;;;;;;1.77;0.20;;;;;;;;;;4983516;28;20062;-72
2021/05/06 07:00:07;;;;;;;2.33;0.40;;;;;;;;;;4985671;28;20061;-72
2021/05/06 07:02:34;;;;;;;0.50;0.20;;;;;;;;;;4982311;28;20121;-72
2021/05/06 07:05:00;;;;;;;2.17;0.43;;;;;;;;;;4984948;28;20478;-72
2021/05/06 07:07:27;;;;;;;1.10;0.43;;;;;;;;;;4985803;28;20081;-73
2021/05/06 07:09:53;;;;;;;1.50;0.35;;;;;;;;;;4983683;28;20073;-72
2021/05/06 07:12:20;;;;;;;2.67;0.45;;;;;;;;;;4985144;28;20145;-73
2021/05/06 07:14:47;;;;;;;0.20;0.10;;;;;;;;;;4981499;28;20112;-72
2021/05/06 07:17:13;;;;;;;0.93;0.28;;;;;;;;;;4986042;28;20030;-72
2021/05/06 07:19:40;;;;;;;2.47;0.47;;;;;;;;;;4984194;28;20652;-72
2021/05/06 07:22:06;;;;;;;1.13;0.30;;;;;;;;;;4988155;28;20073;-71
2021/05/06 07:24:32;;;;;;;3.40;0.30;;;;;;;;;;4988224;28;20034;-72
2021/05/06 07:27:00;;;;;;;4.22;0.40;;;;;;;;;;5001223;28;20069;-72
2021/05/06 07:29:27;;;;;;;1.05;0.32;;;;;;;;;;4983323;28;20103;-73
2021/05/06 07:31:53;;;;;;;2.33;0.28;;;;;;;;;;4998619;28;20164;-73
2021/05/06 07:34:20;;;;;;;2.47;0.40;;;;;;;;;;4976868;28;20074;-73
2021/05/06 07:36:46;;;;;;;2.03;0.40;;;;;;;;;;4981176;28;20054;-73
2021/05/06 07:39:13;;;;;;;0.88;0.40;;;;;;;;;;4983730;28;20066;-71
2021/05/06 07:41:40;;;;;;;2.20;0.60;;;;;;;;;;4983409;28;20062;-72
2021/05/06 07:44:07;;;;;;;1.50;0.50;;;;;;;;;;4980945;28;20089;-71
2021/05/06 07:46:33;;;;;;;1.58;0.43;;;;;;;;;;4984855;28;20146;-72
2021/05/06 07:49:00;;;;;;;2.75;0.57;;;;;;;;;;4980593;28;20069;-72
2021/05/06 07:51:27;;;;;;;1.75;0.47;;;;;;;;;;4984061;28;20070;-73
2021/05/06 07:53:54;;;;;;;3.05;0.50;;;;;;;;;;4981867;28;20073;-70
2021/05/06 07:56:21;;;;;;;1.73;0.50;;;;;;;;;;4983296;28;20066;-72
2021/05/06 07:58:47;;;;;;;1.85;0.60;;;;;;;;;;4979702;28;20465;-72
2021/05/06 08:01:15;;;;;;;1.45;0.75;;;;;;;;;;4980544;28;20066;-72
2021/05/06 08:03:41;;;;;;;2.35;0.60;;;;;;;;;;4977834;28;20066;-71
2021/05/06 08:06:08;;;;;;;2.25;0.52;;;;;;;;;;4983690;28;20073;-71
2021/05/06 08:08:35;;;;;;;3.13;0.60;;;;;;;;;;4981878;28;20132;-71
2021/05/06 08:11:02;;;;;;;2.15;0.73;;;;;;;;;;4983515;28;20062;-70
2021/05/06 08:13:29;;;;;;;2.58;0.52;;;;;;;;;;4978853;28;20097;-71
2021/05/06 08:15:56;;;;;;;1.75;0.38;;;;;;;;;;4984464;28;20469;-71
2021/05/06 08:18:23;;;;;;;2.15;0.50;;;;;;;;;;4979050;28;20066;-71
2021/05/06 08:20:49;;;;;;;1.10;0.40;;;;;;;;;;4978223;28;20058;-72
2021/05/06 08:23:16;;;;;;;2.40;0.60;;;;;;;;;;4979922;28;20053;-72
2021/05/06 08:25:42;;;;;;;4.18;0.52;;;;;;;;;;4958189;28;20109;-71
2021/05/06 08:28:09;;;;;;;1.95;0.40;;;;;;;;;;4983525;28;20058;-72
2021/05/06 08:30:36;;;;;;;0.82;0.38;;;;;;;;;;4983852;28;20518;-70
2021/05/06 08:33:03;;;;;;;2.03;0.38;;;;;;;;;;4983147;28;20120;-71
2021/05/06 08:35:29;;;;;;;2.13;0.50;;;;;;;;;;4982503;28;20058;-71
2021/05/06 08:37:56;;;;;;;1.85;0.40;;;;;;;;;;5000696;28;20065;-70
2021/05/06 08:40:22;;;;;;;1.80;0.43;;;;;;;;;;4982266;28;20058;-71
2021/05/06 08:42:53;;;;;;;2.53;0.38;;;;;;;;;;4982433;28;20061;-71
2021/05/06 08:45:19;;;;;;;0.95;0.20;;;;;;;;;;4981361;28;20042;-71
2021/05/06 08:47:46;;;;;;;1.73;0.47;;;;;;;;;;4979202;28;20666;-71
2021/05/06 08:50:17;;;;;;;1.35;0.50;;;;;;;;;;4980762;28;20081;-71
2021/05/06 08:52:44;;;;;;;2.45;0.47;;;;;;;;;;4976335;28;20132;-71
2021/05/06 08:55:10;;;;;;;1.40;0.40;;;;;;;;;;4983065;28;20133;-71
2021/05/06 08:57:37;;;;;;;2.03;0.30;;;;;;;;;;4982506;28;20475;-71
2021/05/06 09:00:04;;;;;;;0.95;0.40;;;;;;;;;;4983102;28;20136;-71
2021/05/06 09:02:30;;;;;;;2.22;0.40;;;;;;;;;;4983556;28;20056;-71
2021/05/06 09:04:57;;;;;;;1.65;0.40;;;;;;;;;;4997253;28;20058;-71
2021/05/06 09:07:23;;;;;;;0.98;0.25;;;;;;;;;;4982945;28;20070;-72
2021/05/06 09:09:51;;;;;;;1.13;0.47;;;;;;;;;;4981370;28;20079;-72
2021/05/06 09:12:33;;;;;;;0.90;0.30;;;;;;;;;;4998810;28;20069;-72
2021/05/06 09:15:07;;;;;;;0.55;0.20;;;;;;;;;;4986575;28;20042;-72
2021/05/06 09:17:34;;;;;;;2.42;0.40;;;;;;;;;;4987452;28;20518;-72
2021/05/06 09:20:20;;;;;;;0.63;0.30;;;;;;;;;;5003574;28;20065;-72
2021/05/06 09:22:48;;;;;;;2.53;0.40;;;;;;;;;;4986835;28;20144;-71
2021/05/06 09:25:29;;;;;;;1.38;0.30;;;;;;;;;;4988809;28;20062;-72
2021/05/06 09:28:02;;;;;;;1.67;0.30;;;;;;;;;;4983450;28;20403;-71
2021/05/06 09:30:29;;;;;;;1.17;0.30;;;;;;;;;;4982231;28;20086;-72
2021/05/06 09:33:02;;;;;;;1.08;0.50;;;;;;;;;;4987448;28;20466;-71
2021/05/06 09:35:29;;;;;;;1.45;0.40;;;;;;;;;;4977140;28;20042;-71
2021/05/06 09:37:55;;;;;;;1.40;0.40;;;;;;;;;;5018021;28;20406;-72
2021/05/06 09:40:21;;;;;;;1.40;0.28;;;;;;;;;;4984623;28;20046;-72
2021/05/06 09:42:49;;;;;;;1.50;0.40;;;;;;;;;;4999780;28;20050;-73
2021/05/06 09:45:22;;;;;;;1.33;0.43;;;;;;;;;;4986366;28;20078;-71
2021/05/06 09:48:08;;;;;;;1.65;0.40;;;;;;;;;;4983282;28;20054;-73
2021/05/06 09:50:34;;;;;;;0.73;0.43;;;;;;;;;;4986915;28;20078;-72
2021/05/06 09:53:01;;;;;;;1.75;0.40;;;;;;;;;;4986586;28;20451;-72
2021/05/06 09:55:34;;;;;;;0.25;0.10;;;;;;;;;;4986034;28;20109;-75
2021/05/06 09:58:13;;;;;;;1.55;0.30;;;;;;;;;;4981355;28;20126;-74
2021/05/06 10:00:40;;;;;;;0.57;0.20;;;;;;;;;;4985459;28;20058;-73
2021/05/06 10:03:10;;;;;;;3.67;0.50;;;;;;;;;;4986418;28;20489;-72
2021/05/06 10:05:37;;;;;;;1.40;0.20;;;;;;;;;;4982650;28;20116;-71
2021/05/06 10:08:04;;;;;;;0.57;0.20;;;;;;;;;;5000123;28;20038;-71
2021/05/06 10:10:31;;;;;;;1.10;0.40;;;;;;;;;;4999275;28;20608;-71
2021/05/06 10:12:58;;;;;;;1.15;0.40;;;;;;;;;;4984596;28;20065;-70
2021/05/06 10:15:25;;;;;;;0.88;0.30;;;;;;;;;;4984622;28;20223;-71
2021/05/06 10:17:52;;;;;;;0.95;0.30;;;;;;;;;;4984726;28;20165;-71
2021/05/06 10:20:23;;;;;;;1.23;0.40;;;;;;;;;;4982717;28;20071;-71
2021/05/06 10:22:50;;;;;;;0.93;0.40;;;;;;;;;;4986647;28;20149;-71
2021/05/06 10:25:19;;;;;;;0.55;0.20;;;;;;;;;;5016920;28;20454;-70
2021/05/06 10:27:46;;;;;;;0.68;0.30;;;;;;;;;;4986567;28;21267;-70
2021/05/06 10:30:13;;;;;;;1.15;0.30;;;;;;;;;;4982972;28;20069;-70
2021/05/06 10:32:40;;;;;;;2.15;0.35;;;;;;;;;;4999740;28;20142;-70
2021/05/06 10:35:10;;;;;;;1.55;0.30;;;;;;;;;;4984858;28;20589;-70
2021/05/06 10:37:38;;;;;;;2.22;0.30;;;;;;;;;;4986248;28;20467;-69
2021/05/06 10:40:31;;;;;;;0.80;0.30;;;;;;;;;;4983661;28;20086;-70
2021/05/06 10:42:58;;;;;;;1.13;0.10;;;;;;;;;;4981026;28;21332;-70
2021/05/06 10:45:25;;;;;;;1.13;0.20;;;;;;;;;;4980704;28;20066;-70
2021/05/06 10:47:53;;;;;;;1.35;0.30;;;;;;;;;;4981991;28;20557;-70
2021/05/06 10:50:20;;;;;;;1.73;0.35;;;;;;;;;;4983562;28;20069;-70
2021/05/06 10:52:51;;;;;;;2.80;0.30;;;;;;;;;;4984115;28;20058;-69
2021/05/06 10:55:36;;;;;;;1.85;0.38;;;;;;;;;;4999267;28;20092;-70
2021/05/06 10:58:26;;;;;;;0.17;0.10;;;;;;;;;;4979695;28;20164;-70
2021/05/06 11:01:02;;;;;;;9.43;0.50;;;;;;;;;;4936422;28;20085;-69
2021/05/06 11:03:29;;;;;;;0.45;0.13;;;;;;;;;;4956342;28;20038;-69
2021/05/06 11:05:57;;;;;;;0.52;0.30;;;;;;;;;;4982661;28;20074;-70
2021/05/06 11:08:23;;;;;;;1.13;0.25;;;;;;;;;;4981156;28;20081;-70
2021/05/06 11:10:50;;;;;;;0.73;0.28;;;;;;;;;;4980775;28;20062;-70
2021/05/06 11:13:17;;;;;;;1.13;0.20;;;;;;;;;;4984606;28;20541;-70
2021/05/06 11:15:44;;;;;;;0.77;0.30;;;;;;;;;;4981927;28;20070;-70
2021/05/06 11:18:12;;;;;;;1.73;0.30;;;;;;;;;;4985215;28;20058;-70
2021/05/06 11:20:43;;;;;;;1.85;0.20;;;;;;;;;;4984998;28;20066;-69
2021/05/06 11:23:23;;;;;;;1.40;0.20;;;;;;;;;;4983095;28;20077;-71
2021/05/06 11:25:51;;;;;;;2.58;0.20;;;;;;;;;;4982452;28;20218;-70
2021/05/06 11:28:20;;;;;;;1.75;0.40;;;;;;;;;;4983576;28;20120;-71
2021/05/06 11:30:48;;;;;;;4.20;0.40;;;;;;;;;;4983958;28;21352;-71
2021/05/06 11:36:03;;;;;;;0.50;0.20;;;;;;;;;;4983525;28;20042;-71
2021/05/06 11:38:43;;;;;;;0.82;0.17;;;;;;;;;;4983082;28;20062;-70
2021/05/06 11:41:36;;;;;;;0.65;0.20;;;;;;;;;;4978858;28;20062;-71
2021/05/06 11:44:05;;;;;;;2.35;0.30;;;;;;;;;;4982923;28;20120;-72
2021/05/06 11:46:33;;;;;;;0.57;0.20;;;;;;;;;;4976181;28;20030;-71
2021/05/06 11:48:59;;;;;;;1.73;0.20;;;;;;;;;;4985590;28;20065;-71
2021/05/06 11:51:34;;;;;;;1.73;0.30;;;;;;;;;;4984566;28;20070;-72
2021/05/06 11:54:03;;;;;;;0.55;0.35;;;;;;;;;;4976745;28;20066;-71
2021/05/06 11:56:29;;;;;;;2.25;0.40;;;;;;;;;;4979545;28;20077;-72
2021/05/06 11:58:56;;;;;;;2.00;0.70;;;;;;;;;;4984055;28;20195;-70
2021/05/06 12:01:26;;;;;;;3.53;0.93;;;;;;;;;;4983356;28;20471;-71
2021/05/06 12:03:53;;;;;;;2.03;0.80;;;;;;;;;;4984707;28;20062;-71
2021/05/06 12:06:30;;;;;;;2.33;1.00;;;;;;;;;;4983937;28;20066;-71
2021/05/06 12:08:57;;;;;;;1.52;0.80;;;;;;;;;;4981640;28;20168;-72
2021/05/06 12:11:32;;;;;;;1.50;0.68;;;;;;;;;;4981915;28;20124;-72
2021/05/06 12:13:59;;;;;;;2.95;0.70;;;;;;;;;;4983010;28;20589;-71
2021/05/06 12:16:28;;;;;;;1.60;0.60;;;;;;;;;;4983277;28;20072;-71
2021/05/06 12:18:55;;;;;;;1.67;0.70;;;;;;;;;;4983850;28;20061;-71
2021/05/06 12:21:27;;;;;;;1.77;0.60;;;;;;;;;;4983606;28;20086;-71
2021/05/06 12:23:53;;;;;;;1.48;0.60;;;;;;;;;;4979682;28;20531;-71
2021/05/06 12:26:20;;;;;;;1.77;0.65;;;;;;;;;;4982157;28;20075;-71
2021/05/06 12:28:47;;;;;;;2.00;0.77;;;;;;;;;;4984562;28;20058;-71
2021/05/06 12:31:14;;;;;;;3.22;0.82;;;;;;;;;;4982906;28;20578;-71
2021/05/06 12:33:40;;;;;;;1.48;0.73;;;;;;;;;;4981370;28;20062;-71
2021/05/06 12:36:11;;;;;;;1.30;0.40;;;;;;;;;;4981312;28;20066;-71
2021/05/06 12:38:38;;;;;;;1.58;0.60;;;;;;;;;;4982089;28;20058;-69
2021/05/06 12:41:06;;;;;;;1.42;0.50;;;;;;;;;;4983969;28;20058;-71
2021/05/06 12:43:34;;;;;;;1.63;0.57;;;;;;;;;;4985658;28;20035;-69
2021/05/06 12:46:03;;;;;;;2.42;0.60;;;;;;;;;;4984844;28;20058;-72
2021/05/06 12:48:43;;;;;;;1.20;0.43;;;;;;;;;;4984684;28;20050;-72
2021/05/06 12:51:11;;;;;;;2.22;0.60;;;;;;;;;;4988491;28;20070;-72
2021/05/06 12:53:38;;;;;;;2.10;0.45;;;;;;;;;;4980197;28;20062;-71
2021/05/06 12:56:05;;;;;;;0.90;0.55;;;;;;;;;;4987716;28;20120;-71
2021/05/06 12:58:35;;;;;;;0.90;0.57;;;;;;;;;;4987912;28;20047;-71
2021/05/06 13:01:03;;;;;;;1.33;0.55;;;;;;;;;;4987332;28;20027;-71
2021/05/06 13:03:33;;;;;;;2.65;0.60;;;;;;;;;;4985656;28;20128;-71
2021/05/06 13:06:10;;;;;;;2.05;0.60;;;;;;;;;;4984034;28;20046;-70
2021/05/06 13:08:39;;;;;;;1.70;0.60;;;;;;;;;;4967542;28;20065;-71
2021/05/06 13:11:09;;;;;;;0.68;0.40;;;;;;;;;;4988301;28;20062;-71
2021/05/06 13:13:36;;;;;;;1.20;0.50;;;;;;;;;;4987111;28;20136;-71
2021/05/06 13:16:03;;;;;;;1.25;0.60;;;;;;;;;;4987644;28;20041;-71
2021/05/06 13:18:29;;;;;;;1.30;0.47;;;;;;;;;;4987405;28;20054;-70
2021/05/06 13:20:55;;;;;;;0.90;0.45;;;;;;;;;;4987264;28;20061;-73
2021/05/06 13:23:32;;;;;;;2.47;0.60;;;;;;;;;;4984630;28;20446;-74
2021/05/06 13:26:03;;;;;;;2.42;0.60;;;;;;;;;;4988156;28;20077;-72
2021/05/06 13:28:32;;;;;;;3.05;0.70;;;;;;;;;;4983931;28;20061;-72
2021/05/06 13:31:11;;;;;;;2.47;0.60;;;;;;;;;;4986941;28;20537;-72
2021/05/06 13:33:39;;;;;;;3.22;0.82;;;;;;;;;;4985002;28;20070;-72
2021/05/06 13:36:12;;;;;;;1.88;0.50;;;;;;;;;;4980002;28;20034;-72
2021/05/06 13:39:08;;;;;;;1.67;0.50;;;;;;;;;;4983547;28;20116;-71
2021/05/06 13:41:36;;;;;;;2.85;0.65;;;;;;;;;;4990731;28;20419;-71
2021/05/06 13:44:04;;;;;;;1.85;0.50;;;;;;;;;;4984922;28;20153;-72
2021/05/06 13:46:31;;;;;;;3.17;0.52;;;;;;;;;;4984298;28;20061;-72
2021/05/06 13:49:01;;;;;;;1.52;0.60;;;;;;;;;;4988156;28;20062;-72
2021/05/06 13:51:28;;;;;;;1.30;0.50;;;;;;;;;;4987091;28;20128;-72
2021/05/06 13:53:54;;;;;;;3.30;0.60;;;;;;;;;;5002036;28;20066;-72
2021/05/06 13:56:21;;;;;;;1.75;0.65;;;;;;;;;;4984165;28;20085;-82
2021/05/06 13:58:48;;;;;;;2.33;0.60;;;;;;;;;;4961718;28;20410;-82
2021/05/06 14:01:15;;;;;;;1.90;0.77;;;;;;;;;;4986108;28;20070;-81
2021/05/06 14:03:41;;;;;;;1.13;0.40;;;;;;;;;;4988010;28;20494;-82
2021/05/06 14:06:08;;;;;;;1.83;0.60;;;;;;;;;;4983126;28;20070;-82
2021/05/06 14:08:35;;;;;;;1.88;0.52;;;;;;;;;;4963206;28;20197;-82
2021/05/06 14:11:02;;;;;;;1.90;0.50;;;;;;;;;;4987992;28;20140;-82
2021/05/06 14:13:30;;;;;;;1.05;0.43;;;;;;;;;;4999670;28;20628;-82
2021/05/06 14:15:56;;;;;;;1.13;0.45;;;;;;;;;;4963368;28;20714;-84
2021/05/06 14:18:23;;;;;;;3.83;0.77;;;;;;;;;;4985212;28;20475;-82
2021/05/06 14:20:49;;;;;;;2.10;0.50;;;;;;;;;;4987203;28;20066;-82
2021/05/06 14:23:18;;;;;;;1.15;0.40;;;;;;;;;;4988775;28;20062;-85
2021/05/06 14:25:45;;;;;;;3.05;0.50;;;;;;;;;;4998774;28;20054;-83
2021/05/06 14:28:11;;;;;;;1.67;0.68;;;;;;;;;;4985027;28;20113;-83
2021/05/06 14:30:38;;;;;;;3.03;0.80;;;;;;;;;;4985297;28;20458;-83
2021/05/06 14:33:04;;;;;;;1.73;0.60;;;;;;;;;;4986431;28;20081;-82
2021/05/06 14:35:31;;;;;;;1.45;0.55;;;;;;;;;;4986130;28;20062;-82
2021/05/06 14:37:58;;;;;;;1.25;0.50;;;;;;;;;;4988290;28;20066;-82
2021/05/06 14:40:25;;;;;;;1.65;0.60;;;;;;;;;;4986313;28;20065;-80
2021/05/06 14:42:51;;;;;;;2.10;0.50;;;;;;;;;;4983143;28;20030;-83
2021/05/06 14:45:17;;;;;;;0.85;0.40;;;;;;;;;;4985953;28;20050;-84
2021/05/06 14:47:44;;;;;;;1.05;0.52;;;;;;;;;;4984986;28;20058;-84
2021/05/06 14:50:11;;;;;;;3.08;0.60;;;;;;;;;;4986220;28;20785;-84
2021/05/06 14:52:38;;;;;;;1.65;0.45;;;;;;;;;;4984328;28;20066;-84
2021/05/06 14:55:06;;;;;;;1.45;0.50;;;;;;;;;;4988316;28;20070;-83
2021/05/06 14:57:32;;;;;;;1.33;0.52;;;;;;;;;;4983352;28;20065;-85
2021/05/06 14:59:59;;;;;;;0.60;0.30;;;;;;;;;;5003483;28;20108;-85
2021/05/06 15:02:26;;;;;;;3.33;0.60;;;;;;;;;;4962365;28;20061;-83
2021/05/06 15:04:52;;;;;;;2.15;0.50;;;;;;;;;;5000414;28;20042;-84
2021/05/06 15:07:18;;;;;;;2.05;0.60;;;;;;;;;;4981584;28;20485;-84
2021/05/06 15:09:45;;;;;;;2.25;0.50;;;;;;;;;;4985211;28;21196;-83
2021/05/06 15:12:11;;;;;;;2.33;0.57;;;;;;;;;;4963423;28;20070;-83
2021/05/06 15:14:39;;;;;;;1.40;0.50;;;;;;;;;;4984058;28;20136;-83
2021/05/06 15:17:06;;;;;;;2.35;0.50;;;;;;;;;;4987628;28;20042;-83
2021/05/06 15:19:32;;;;;;;3.05;0.60;;;;;;;;;;4983896;28;20467;-83
2021/05/06 15:22:00;;;;;;;0.75;0.40;;;;;;;;;;4983764;28;20482;-83
2021/05/06 15:24:26;;;;;;;1.13;0.40;;;;;;;;;;4988057;28;20030;-73
2021/05/06 15:26:53;;;;;;;3.05;0.77;;;;;;;;;;4988987;28;20031;-74
2021/05/06 15:29:19;;;;;;;2.35;0.52;;;;;;;;;;4984237;28;20468;-71
2021/05/06 15:31:46;;;;;;;5.10;0.50;;;;;;;;;;4989470;28;20100;-72
2021/05/06 15:34:12;;;;;;;1.25;0.40;;;;;;;;;;4990789;28;20082;-71
2021/05/06 15:36:40;;;;;;;1.38;0.45;;;;;;;;;;4978439;28;20049;-71
2021/05/06 15:39:08;;;;;;;2.25;0.43;;;;;;;;;;4978249;28;20516;-69
2021/05/06 15:41:34;;;;;;;1.23;0.50;;;;;;;;;;4977611;28;20096;-69
2021/05/06 15:44:01;;;;;;;1.63;0.30;;;;;;;;;;4984117;28;20061;-68
2021/05/06 15:46:28;;;;;;;2.88;0.60;;;;;;;;;;4982634;28;20065;-69
2021/05/06 15:48:54;;;;;;;1.20;0.50;;;;;;;;;;4984821;28;20069;-70
2021/05/06 15:51:20;;;;;;;2.55;0.60;;;;;;;;;;4983574;28;20050;-70
2021/05/06 15:53:47;;;;;;;2.15;0.75;;;;;;;;;;4984482;28;20498;-69
2021/05/06 15:56:14;;;;;;;2.45;0.60;;;;;;;;;;4983434;28;20073;-69
2021/05/06 15:58:40;;;;;;;2.92;0.85;;;;;;;;;;4977449;28;20086;-70
2021/05/06 16:01:07;;;;;;;1.63;0.60;;;;;;;;;;4984786;28;20065;-71
2021/05/06 16:03:45;;;;;;;6.15;0.98;;;;;;;;;;4980795;28;20088;-70
2021/05/06 16:06:11;;;;;;;3.80;1.02;;;;;;;;;;4985208;28;20073;-70
2021/05/06 16:08:38;;;;;;;8.70;2.20;;;;;;;;;;4983627;28;20097;-71
2021/05/06 16:11:04;;;;;;;8.50;2.25;;;;;;;;;;4981954;28;20042;-70
2021/05/06 16:13:31;;;;;;;6.22;1.77;;;;;;;;;;4998113;28;20069;-70
2021/05/06 16:15:57;;;;;;;5.65;1.90;;;;;;;;;;4985830;28;20065;-76
2021/05/06 16:18:24;;;;;;;7.22;1.85;;;;;;;;;;4982734;28;20054;-70
2021/05/06 16:20:51;;;;;;;8.55;1.77;;;;;;;;;;4997354;28;20066;-69
2021/05/06 16:23:18;;;;;;;5.40;1.73;;;;;;;;;;4978470;28;20077;-69
2021/05/06 16:25:44;;;;;;;6.18;1.70;;;;;;;;;;4984042;28;20804;-70
2021/05/06 16:28:12;;;;;;;6.18;1.73;;;;;;;;;;4997786;28;20085;-68
2021/05/06 16:30:38;;;;;;;9.90;1.83;;;;;;;;;;4958454;28;20122;-69
2021/05/06 16:33:08;;;;;;;6.32;2.13;;;;;;;;;;4972693;28;20164;-69
2021/05/06 16:35:40;;;;;;;7.22;1.70;;;;;;;;;;4981860;28;20360;-68
2021/05/06 16:38:09;;;;;;;4.70;1.58;;;;;;;;;;4999400;28;20694;-68
2021/05/06 16:40:45;;;;;;;4.25;1.30;;;;;;;;;;4982598;28;20138;-70
2021/05/06 16:46:14;;;;;;;3.92;1.30;;;;;;;;;;4977234;28;21332;-69
2021/05/06 16:48:41;;;;;;;2.88;1.13;;;;;;;;;;4981384;28;20061;-67
2021/05/06 16:51:07;;;;;;;5.32;1.15;;;;;;;;;;4981611;28;20046;-69
2021/05/06 16:53:34;;;;;;;3.70;1.40;;;;;;;;;;4982695;28;20128;-70
2021/05/06 16:56:00;;;;;;;4.75;1.10;;;;;;;;;;4979748;28;20061;-69
2021/05/06 16:58:27;;;;;;;5.05;1.20;;;;;;;;;;4996627;28;20524;-70
2021/05/06 17:00:56;;;;;;;5.35;1.50;;;;;;;;;;4982952;28;20097;-70
2021/05/06 17:03:22;;;;;;;4.05;1.55;;;;;;;;;;4979369;28;20093;-71
2021/05/06 17:05:49;;;;;;;4.95;2.15;;;;;;;;;;4995933;28;20066;-69
2021/05/06 17:08:15;;;;;;;5.53;2.30;;;;;;;;;;4979936;28;20442;-70
2021/05/06 17:10:42;;;;;;;4.90;2.28;;;;;;;;;;4980426;28;20045;-70
2021/05/06 17:13:12;;;;;;;7.18;2.72;;;;;;;;;;4971053;28;20137;-69
2021/05/06 17:15:39;;;;;;;7.97;2.97;;;;;;;;;;4981120;28;20117;-69
2021/05/06 17:18:06;;;;;;;10.10;3.38;;;;;;;;;;4985399;28;20043;-69
2021/05/06 17:20:32;;;;;;;7.82;3.83;;;;;;;;;;4981396;28;20546;-69
2021/05/06 17:22:59;;;;;;;7.13;3.53;;;;;;;;;;4966591;28;20070;-69
2021/05/06 17:25:26;;;;;;;7.47;3.15;;;;;;;;;;4982610;28;20066;-70
2021/05/06 17:27:52;;;;;;;8.68;3.50;;;;;;;;;;4983148;28;20038;-69
2021/05/06 17:30:19;;;;;;;8.50;3.65;;;;;;;;;;4984724;28;20072;-70
2021/05/06 17:32:46;;;;;;;8.43;3.90;;;;;;;;;;4983337;28;20038;-68
2021/05/06 17:35:14;;;;;;;9.32;4.00;;;;;;;;;;4986594;28;20035;-70
2021/05/06 17:37:41;;;;;;;6.68;3.92;;;;;;;;;;4985302;28;20553;-69
2021/05/06 17:40:10;;;;;;;10.18;4.22;;;;;;;;;;4984307;28;20065;-70
2021/05/06 17:42:36;;;;;;;8.05;3.58;;;;;;;;;;4985775;28;20058;-70
2021/05/06 17:45:04;;;;;;;7.55;4.28;;;;;;;;;;4986310;28;20149;-70
2021/05/06 17:47:31;;;;;;;9.10;3.95;;;;;;;;;;4984416;28;20054;-69
2021/05/06 17:49:57;;;;;;;7.30;4.20;;;;;;;;;;4983989;28;20085;-69
2021/05/06 17:52:23;;;;;;;7.70;3.72;;;;;;;;;;4983647;28;20080;-70
2021/05/06 17:54:50;;;;;;;5.72;3.63;;;;;;;;;;4982783;28;20116;-72
2021/05/06 17:57:16;;;;;;;8.07;3.63;;;;;;;;;;4985267;28;20680;-69
2021/05/06 17:59:43;;;;;;;8.15;4.43;;;;;;;;;;4981705;28;20069;-70
2021/05/06 18:02:09;;;;;;;7.97;3.67;;;;;;;;;;4975769;28;20062;-69
2021/05/06 18:04:36;;;;;;;7.40;3.67;;;;;;;;;;4985519;28;20058;-71
2021/05/06 18:07:02;;;;;;;8.13;3.53;;;;;;;;;;4984229;28;20065;-71
2021/05/06 18:09:35;;;;;;;6.93;3.47;;;;;;;;;;4976446;28;20063;-70
2021/05/06 18:12:06;;;;;;;8.38;3.83;;;;;;;;;;4983354;28;20135;-70
2021/05/06 18:14:33;;;;;;;;;;;;;;;;;;4984911;28;20050;-70
2021/05/06 18:16:59;;;;;;;5.75;3.00;;;;;;;;;;5016193;28;20354;-69
2021/05/06 18:19:26;;;;;;;7.00;3.70;;;;;;;;;;4984353;28;20074;-69